createdAt,value
2019-05-07T00:01:23.284Z,29.30
2019-05-07T00:03:53.654Z,24.73
2019-05-07T00:06:24.558Z,22.10
2019-05-07T00:08:54.999Z,21.23
2019-05-07T00:11:25.897Z,23.93
2019-05-07T00:13:56.836Z,24.63
2019-05-07T00:16:27.611Z,21.20
2019-05-07T00:18:58.866Z,23.80
2019-05-07T00:21:29.658Z,20.80
2019-05-07T00:24:02.256Z,20.30
2019-05-07T00:26:34.105Z,21.87
2019-05-07T00:29:04.879Z,21.43
2019-05-07T00:31:35.319Z,21.03
2019-05-07T00:34:06.106Z,21.27
2019-05-07T00:36:48.316Z,17.13
2019-05-07T00:39:36.404Z,15.87
2019-05-07T00:42:22.062Z,15.67
2019-05-07T00:44:57.520Z,16.50
2019-05-07T00:47:28.398Z,14.57
2019-05-07T00:50:03.299Z,14.67
2019-05-07T00:52:33.842Z,12.50
2019-05-07T00:55:04.548Z,12.77
2019-05-07T00:57:34.973Z,9.17
2019-05-07T01:00:06.085Z,8.13
2019-05-07T01:02:36.506Z,7.40
2019-05-07T01:05:07.484Z,7.97
2019-05-07T01:07:37.961Z,9.13
2019-05-07T01:10:09.669Z,5.83
2019-05-07T01:12:42.191Z,8.70
2019-05-07T01:15:12.952Z,9.13
2019-05-07T01:17:43.433Z,5.53
2019-05-07T01:20:13.866Z,9.83
2019-05-07T01:22:44.715Z,5.20
2019-05-07T01:25:15.141Z,6.50
2019-05-07T01:27:46.832Z,5.57
2019-05-07T01:30:17.305Z,8.43
2019-05-07T01:32:54.345Z,8.57
2019-05-07T01:35:44.124Z,6.23
2019-05-07T01:38:17.159Z,6.10
2019-05-07T01:40:47.584Z,8.20
2019-05-07T01:43:18.451Z,8.93
2019-05-07T01:45:50.107Z,7.63
2019-05-07T01:48:22.974Z,7.33
2019-05-07T01:50:54.372Z,6.40
2019-05-07T01:53:24.806Z,6.20
2019-05-07T01:55:56.565Z,7.37
2019-05-07T01:58:27.296Z,6.20
2019-05-07T02:00:58.169Z,9.17
2019-05-07T02:03:46.621Z,7.73
2019-05-07T02:06:40.153Z,7.43
2019-05-07T02:09:23.372Z,6.83
2019-05-07T02:12:13.296Z,7.10
2019-05-07T02:14:44.259Z,8.07
2019-05-07T02:17:15.113Z,11.13
2019-05-07T02:19:45.847Z,8.77
2019-05-07T02:22:16.356Z,7.93
2019-05-07T02:24:47.154Z,7.07
2019-05-07T02:27:17.580Z,6.67
2019-05-07T02:29:48.060Z,6.33
2019-05-07T02:32:18.489Z,7.87
2019-05-07T02:34:49.557Z,8.00
2019-05-07T02:37:27.416Z,9.20
2019-05-07T02:40:16.270Z,8.87
2019-05-07T02:42:46.754Z,8.57
2019-05-07T02:45:36.170Z,8.87
2019-05-07T02:48:07.194Z,7.10
2019-05-07T02:50:44.273Z,7.70
2019-05-07T02:53:24.081Z,7.30
2019-05-07T02:55:56.204Z,9.57
2019-05-07T02:58:26.626Z,6.43
2019-05-07T03:00:57.102Z,8.47
2019-05-07T03:03:27.526Z,6.67
2019-05-07T03:05:57.966Z,7.57
2019-05-07T03:08:28.428Z,7.43
2019-05-07T03:10:58.858Z,8.10
2019-05-07T03:13:29.701Z,10.03
2019-05-07T03:16:03.527Z,9.80
2019-05-07T03:18:33.502Z,9.20
2019-05-07T03:21:13.350Z,9.70
2019-05-07T03:24:05.878Z,10.83
2019-05-07T03:26:43.417Z,9.47
2019-05-07T03:29:18.082Z,11.10
2019-05-07T03:31:58.465Z,10.30
2019-05-07T03:34:37.159Z,9.87
2019-05-07T03:37:09.564Z,9.47
2019-05-07T03:39:42.956Z,9.70
2019-05-07T03:42:13.294Z,11.60
2019-05-07T03:45:03.860Z,12.77
2019-05-07T03:47:37.960Z,9.87
2019-05-07T03:50:14.249Z,10.10
2019-05-07T03:52:43.097Z,13.33
2019-05-07T03:55:14.963Z,12.33
2019-05-07T03:57:45.902Z,11.60
2019-05-07T04:00:17.219Z,18.27
2019-05-07T04:02:48.015Z,11.83
2019-05-07T04:05:18.491Z,12.30
2019-05-07T04:07:50.240Z,15.90
2019-05-07T04:10:23.149Z,12.97
2019-05-07T04:12:53.938Z,12.40
2019-05-07T04:15:24.375Z,13.03
2019-05-07T04:17:55.796Z,12.10
2019-05-07T04:20:26.660Z,12.70
2019-05-07T04:22:57.177Z,12.53
2019-05-07T04:25:34.910Z,13.40
2019-05-07T04:28:33.548Z,14.40
2019-05-07T04:31:03.697Z,15.77
2019-05-07T04:33:43.659Z,15.53
2019-05-07T04:36:25.516Z,14.60
2019-05-07T04:38:55.960Z,14.63
2019-05-07T04:41:26.404Z,14.53
2019-05-07T04:43:56.913Z,17.60
2019-05-07T04:46:27.738Z,15.20
2019-05-07T04:48:58.575Z,18.87
2019-05-07T04:51:48.382Z,15.40
2019-05-07T04:54:18.829Z,16.07
2019-05-07T04:56:53.000Z,16.67
2019-05-07T04:59:23.695Z,14.90
2019-05-07T05:02:03.874Z,16.33
2019-05-07T05:04:34.953Z,17.67
2019-05-07T05:07:05.829Z,16.60
2019-05-07T05:09:36.541Z,12.73
2019-05-07T05:12:07.988Z,18.07
2019-05-07T05:14:38.437Z,16.43
2019-05-07T05:17:08.875Z,18.93
2019-05-07T05:19:39.428Z,15.03
2019-05-07T05:22:24.982Z,15.43
2019-05-07T05:25:27.586Z,18.07
2019-05-07T05:27:58.830Z,18.00
2019-05-07T05:30:42.607Z,18.17
2019-05-07T05:33:13.134Z,17.73
2019-05-07T05:35:43.578Z,18.53
2019-05-07T05:38:14.072Z,15.90
2019-05-07T05:40:44.898Z,14.50
2019-05-07T05:43:26.095Z,17.20
2019-05-07T05:45:58.354Z,18.67
2019-05-07T05:48:29.185Z,14.40
2019-05-07T05:51:12.726Z,17.93
2019-05-07T05:53:52.430Z,17.87
2019-05-07T05:56:34.875Z,14.30
2019-05-07T05:59:23.704Z,15.07
2019-05-07T06:02:06.748Z,22.37
2019-05-07T06:04:48.172Z,15.73
2019-05-07T06:07:47.325Z,17.00
2019-05-07T06:10:52.411Z,15.80
2019-05-07T06:13:29.138Z,14.63
2019-05-07T06:16:07.722Z,17.47
2019-05-07T06:18:55.733Z,14.17
2019-05-07T06:21:48.112Z,15.90
2019-05-07T06:24:22.906Z,15.50
2019-05-07T06:26:53.343Z,17.00
2019-05-07T06:29:23.797Z,15.87
2019-05-07T06:32:03.456Z,22.40
2019-05-07T06:34:34.310Z,18.63
2019-05-07T06:37:05.100Z,14.30
2019-05-07T06:39:45.764Z,12.43
2019-05-07T06:42:46.618Z,15.93
2019-05-07T06:45:23.913Z,13.07
2019-05-07T06:47:54.676Z,15.80
2019-05-07T06:50:25.413Z,11.57
2019-05-07T06:52:55.901Z,11.53
2019-05-07T06:55:26.681Z,10.83
2019-05-07T06:57:57.113Z,12.50
2019-05-07T07:00:46.368Z,14.93
2019-05-07T07:03:32.831Z,11.70
2019-05-07T07:06:32.181Z,13.50
2019-05-07T07:09:22.473Z,13.30
2019-05-07T07:11:57.534Z,14.87
2019-05-07T07:14:27.966Z,9.87
2019-05-07T07:16:58.741Z,13.27
2019-05-07T07:19:29.230Z,16.47
2019-05-07T07:21:59.667Z,14.03
2019-05-07T07:24:32.799Z,12.37
2019-05-07T07:27:03.062Z,8.53
2019-05-07T07:29:35.191Z,8.80
2019-05-07T07:32:06.676Z,9.37
2019-05-07T07:34:43.569Z,7.57
2019-05-07T07:37:36.378Z,10.53
2019-05-07T07:40:29.214Z,7.83
2019-05-07T07:42:59.644Z,6.90
2019-05-07T07:45:32.254Z,9.70
2019-05-07T07:48:02.466Z,7.30
2019-05-07T07:50:33.230Z,7.50
2019-05-07T07:53:03.732Z,9.27
2019-05-07T07:55:42.692Z,10.97
2019-05-07T07:58:32.184Z,7.77
2019-05-07T08:01:12.229Z,6.23
2019-05-07T08:03:42.799Z,7.53
2019-05-07T08:06:13.660Z,7.20
2019-05-07T08:08:45.028Z,5.63
2019-05-07T08:11:15.457Z,5.40
2019-05-07T08:13:46.562Z,7.37
2019-05-07T08:16:17.406Z,5.77
2019-05-07T08:18:48.261Z,9.03
2019-05-07T08:21:18.689Z,7.57
2019-05-07T08:23:49.589Z,7.47
2019-05-07T08:26:21.907Z,6.90
2019-05-07T08:28:52.457Z,7.13
2019-05-07T08:31:37.865Z,8.53
2019-05-07T08:34:23.098Z,10.43
2019-05-07T08:36:53.597Z,9.93
2019-05-07T08:39:25.212Z,7.33
2019-05-07T08:41:56.160Z,8.67
2019-05-07T08:44:32.548Z,7.60
2019-05-07T08:47:15.377Z,7.90
2019-05-07T08:49:46.176Z,9.37
2019-05-07T08:52:16.774Z,6.63
2019-05-07T08:54:47.653Z,6.53
2019-05-07T08:57:18.186Z,7.03
2019-05-07T08:59:58.488Z,7.73
2019-05-07T09:02:22.240Z,7.77
2019-05-07T09:04:52.900Z,9.30
2019-05-07T09:07:23.333Z,7.03
2019-05-07T09:09:53.823Z,9.90
2019-05-07T09:12:24.248Z,9.07
2019-05-07T09:14:54.683Z,4.87
2019-05-07T09:17:25.549Z,5.70
2019-05-07T09:19:55.981Z,6.33
2019-05-07T09:22:27.189Z,6.83
2019-05-07T09:24:57.764Z,5.80
2019-05-07T09:27:37.070Z,5.67
2019-05-07T09:30:42.031Z,5.70
2019-05-07T09:33:37.294Z,4.80
2019-05-07T09:36:12.418Z,3.90
2019-05-07T09:38:55.237Z,6.40
2019-05-07T09:41:27.386Z,7.10
2019-05-07T09:43:59.059Z,4.83
2019-05-07T09:46:29.923Z,6.57
2019-05-07T09:49:02.931Z,5.60
2019-05-07T09:51:32.537Z,3.30
2019-05-07T09:54:03.359Z,4.30
2019-05-07T09:56:34.040Z,5.67
2019-05-07T09:59:04.576Z,6.03
2019-05-07T10:01:35.325Z,6.73
2019-05-07T10:04:06.020Z,9.10
2019-05-07T10:06:36.454Z,5.17
2019-05-07T10:09:07.685Z,4.70
2019-05-07T10:11:47.822Z,6.60
2019-05-07T10:14:18.356Z,6.30
2019-05-07T10:17:16.909Z,4.87
2019-05-07T10:19:47.817Z,4.43
2019-05-07T10:22:18.257Z,5.37
2019-05-07T10:24:48.737Z,4.27
2019-05-07T10:27:19.209Z,4.13
2019-05-07T10:29:49.843Z,5.70
2019-05-07T10:32:20.333Z,5.40
2019-05-07T10:34:52.498Z,6.93
2019-05-07T10:37:23.029Z,8.63
2019-05-07T10:39:54.346Z,8.27
2019-05-07T10:42:25.045Z,7.43
2019-05-07T10:45:21.920Z,6.53
2019-05-07T10:48:23.254Z,5.83
2019-05-07T10:50:55.460Z,4.67
2019-05-07T10:53:26.218Z,5.77
2019-05-07T10:55:56.650Z,7.00
2019-05-07T10:58:27.524Z,8.60
2019-05-07T11:00:58.367Z,5.80
2019-05-07T11:03:29.269Z,4.37
2019-05-07T11:05:59.854Z,4.57
2019-05-07T11:08:32.729Z,5.50
2019-05-07T11:11:03.131Z,6.43
2019-05-07T11:13:33.669Z,5.10
2019-05-07T11:16:11.796Z,6.73
2019-05-07T11:18:45.374Z,4.13
2019-05-07T11:21:16.229Z,6.37
2019-05-07T11:23:46.965Z,4.50
2019-05-07T11:26:17.448Z,4.00
2019-05-07T11:28:47.890Z,3.83
2019-05-07T11:31:18.331Z,3.67
2019-05-07T11:33:48.839Z,4.33
2019-05-07T11:36:19.326Z,6.63
2019-05-07T11:38:49.757Z,6.47
2019-05-07T11:41:27.886Z,7.27
2019-05-07T11:44:23.044Z,4.97
2019-05-07T11:47:22.531Z,5.40
2019-05-07T11:50:11.998Z,6.90
2019-05-07T11:52:46.873Z,4.43
2019-05-07T11:55:17.317Z,4.77
2019-05-07T11:57:47.759Z,6.33
2019-05-07T12:00:26.743Z,5.57
2019-05-07T12:02:57.564Z,4.47
2019-05-07T12:05:28.003Z,3.43
2019-05-07T12:07:58.865Z,4.57
2019-05-07T12:10:29.297Z,5.07
2019-05-07T12:13:02.179Z,2.47
2019-05-07T12:15:32.593Z,4.10
2019-05-07T12:18:03.308Z,4.93
2019-05-07T12:20:34.053Z,4.50
2019-05-07T12:23:04.542Z,4.03
2019-05-07T12:25:34.978Z,3.73
2019-05-07T12:28:05.843Z,5.07
2019-05-07T12:30:54.492Z,4.40
2019-05-07T12:33:56.210Z,4.67
2019-05-07T12:36:26.994Z,4.10
2019-05-07T12:38:57.814Z,4.47
2019-05-07T12:41:33.645Z,4.87
2019-05-07T12:44:07.319Z,6.40
2019-05-07T12:46:38.300Z,4.23
2019-05-07T12:49:08.736Z,7.70
2019-05-07T12:52:03.076Z,5.80
2019-05-07T12:54:42.192Z,3.77
2019-05-07T12:57:13.035Z,3.73
2019-05-07T12:59:43.469Z,4.23
2019-05-07T13:02:42.059Z,5.10
2019-05-07T13:05:11.879Z,3.10
2019-05-07T13:07:53.698Z,5.43
2019-05-07T13:10:24.307Z,3.53
2019-05-07T13:12:54.738Z,4.43
2019-05-07T13:15:28.048Z,4.67
2019-05-07T13:17:58.390Z,10.03
2019-05-07T13:20:28.833Z,8.73
2019-05-07T13:22:59.313Z,5.73
2019-05-07T13:25:29.743Z,3.63
2019-05-07T13:28:02.475Z,6.80
2019-05-07T13:30:32.540Z,4.27
2019-05-07T13:33:06.127Z,5.47
2019-05-07T13:35:37.061Z,6.90
2019-05-07T13:38:25.967Z,4.90
2019-05-07T13:41:27.459Z,4.37
2019-05-07T13:44:15.799Z,5.37
2019-05-07T13:46:47.678Z,5.20
2019-05-07T13:49:21.825Z,6.17
2019-05-07T13:52:03.259Z,6.07
2019-05-07T13:54:24.200Z,5.87
2019-05-07T13:56:54.626Z,5.07
2019-05-07T13:59:25.294Z,6.30
2019-05-07T14:02:04.997Z,4.87
2019-05-07T14:04:35.952Z,5.53
2019-05-07T14:07:06.683Z,4.47
2019-05-07T14:09:37.119Z,7.73
2019-05-07T14:12:08.072Z,5.03
2019-05-07T14:14:38.805Z,4.73
2019-05-07T14:17:09.544Z,3.50
2019-05-07T14:19:42.264Z,6.27
2019-05-07T14:22:18.341Z,4.87
2019-05-07T14:24:44.981Z,5.83
2019-05-07T14:27:15.547Z,5.20
2019-05-07T14:29:46.256Z,3.90
2019-05-07T14:32:31.797Z,5.60
2019-05-07T14:35:26.766Z,5.10
2019-05-07T14:38:04.632Z,5.97
2019-05-07T14:40:35.500Z,5.53
2019-05-07T14:43:12.604Z,3.97
2019-05-07T14:45:43.069Z,4.43
2019-05-07T14:48:13.982Z,5.93
2019-05-07T14:50:44.871Z,7.17
2019-05-07T14:53:15.762Z,3.97
2019-05-07T14:55:46.193Z,3.83
2019-05-07T14:58:17.155Z,5.27
2019-05-07T15:00:48.637Z,4.20
2019-05-07T15:03:20.323Z,4.03
2019-05-07T15:05:52.577Z,5.13
2019-05-07T15:08:23.304Z,4.50
2019-05-07T15:10:53.738Z,6.57
2019-05-07T15:13:24.235Z,4.80
2019-05-07T15:15:55.615Z,6.90
2019-05-07T15:18:48.053Z,4.13
2019-05-07T15:21:18.745Z,5.03
2019-05-07T15:23:49.904Z,4.70
2019-05-07T15:26:22.026Z,5.17
2019-05-07T15:29:07.121Z,4.63
2019-05-07T15:31:55.444Z,3.60
2019-05-07T15:34:26.464Z,3.53
2019-05-07T15:36:56.898Z,5.27
2019-05-07T15:39:27.836Z,5.03
2019-05-07T15:41:58.574Z,23.47
2019-05-07T15:44:29.453Z,11.47
2019-05-07T15:47:02.656Z,6.00
2019-05-07T15:49:33.084Z,3.93
2019-05-07T15:52:06.520Z,5.63
2019-05-07T15:54:37.288Z,4.20
2019-05-07T15:57:09.807Z,7.90
2019-05-07T15:59:41.776Z,4.80
2019-05-07T16:02:27.231Z,6.30
2019-05-07T16:04:58.027Z,6.17
2019-05-07T16:07:28.454Z,5.50
2019-05-07T16:09:59.297Z,5.03
2019-05-07T16:12:31.828Z,4.20
2019-05-07T16:15:03.156Z,5.60
2019-05-07T16:17:38.468Z,4.83
2019-05-07T16:20:12.062Z,4.70
2019-05-07T16:22:45.381Z,6.83
2019-05-07T16:25:16.200Z,4.23
2019-05-07T16:27:47.140Z,5.20
2019-05-07T16:30:17.733Z,4.90
2019-05-07T16:32:48.535Z,4.83
2019-05-07T16:35:19.361Z,5.07
2019-05-07T16:37:52.223Z,6.43
2019-05-07T16:40:23.082Z,9.00
2019-05-07T16:42:53.918Z,4.53
2019-05-07T16:45:24.527Z,5.23
2019-05-07T16:47:54.968Z,5.63
2019-05-07T16:50:25.399Z,8.90
2019-05-07T16:52:55.915Z,8.17
2019-05-07T16:55:36.823Z,6.13
2019-05-07T16:58:15.353Z,5.80
2019-05-07T17:00:47.931Z,4.43
2019-05-07T17:03:23.494Z,3.73
2019-05-07T17:05:53.921Z,5.40
2019-05-07T17:08:58.573Z,6.40
2019-05-07T17:11:29.016Z,5.00
2019-05-07T17:13:59.451Z,6.60
2019-05-07T17:16:31.703Z,5.23
2019-05-07T17:19:02.716Z,5.37
2019-05-07T17:21:33.592Z,5.07
2019-05-07T17:24:04.956Z,6.90
2019-05-07T17:26:35.391Z,7.67
2019-05-07T17:29:06.949Z,6.40
2019-05-07T17:31:37.371Z,5.13
2019-05-07T17:34:07.801Z,8.27
2019-05-07T17:36:38.310Z,6.20
2019-05-07T17:39:11.978Z,6.60
2019-05-07T17:41:43.096Z,6.73
2019-05-07T17:44:13.772Z,5.43
2019-05-07T17:46:46.159Z,7.63
2019-05-07T17:49:17.080Z,22.47
2019-05-07T17:51:47.566Z,21.17
2019-05-07T17:54:18.025Z,16.80
2019-05-07T17:56:48.466Z,7.10
2019-05-07T17:59:19.936Z,5.40
2019-05-07T18:02:09.913Z,4.67
2019-05-07T18:04:51.046Z,4.97
2019-05-07T18:07:14.879Z,7.13
2019-05-07T18:09:49.967Z,5.03
2019-05-07T18:12:22.520Z,5.37
2019-05-07T18:14:53.132Z,5.33
2019-05-07T18:17:51.661Z,4.70
2019-05-07T18:20:22.283Z,5.37
2019-05-07T18:22:53.105Z,5.40
2019-05-07T18:25:23.937Z,6.07
2019-05-07T18:27:56.481Z,8.60
2019-05-07T18:30:29.656Z,6.37
2019-05-07T18:33:22.129Z,4.63
2019-05-07T18:35:52.755Z,5.17
2019-05-07T18:38:23.547Z,6.77
2019-05-07T18:40:53.988Z,5.77
2019-05-07T18:43:24.882Z,6.17
2019-05-07T18:46:06.173Z,9.67
2019-05-07T18:48:37.187Z,11.03
2019-05-07T18:51:07.938Z,9.10
2019-05-07T18:53:38.372Z,7.37
2019-05-07T18:56:09.703Z,12.33
2019-05-07T18:58:42.451Z,12.43
2019-05-07T19:01:15.987Z,12.00
2019-05-07T19:03:46.946Z,12.40
2019-05-07T19:06:17.398Z,11.37
2019-05-07T19:08:50.115Z,7.93
2019-05-07T19:11:22.884Z,26.67
2019-05-07T19:13:56.015Z,47.10
2019-05-07T19:16:25.935Z,71.87
2019-05-07T19:18:56.790Z,25.77
2019-05-07T19:21:29.210Z,22.33
2019-05-07T19:23:59.703Z,18.27
2019-05-07T19:26:30.535Z,12.63
2019-05-07T19:29:02.552Z,14.43
2019-05-07T19:31:33.105Z,16.53
2019-05-07T19:34:03.564Z,19.10
2019-05-07T19:36:34.327Z,14.80
2019-05-07T19:39:07.561Z,13.90
2019-05-07T19:41:38.039Z,18.80
2019-05-07T19:44:09.198Z,9.40
2019-05-07T19:46:40.288Z,12.83
2019-05-07T19:49:10.726Z,15.93
2019-05-07T19:51:42.829Z,10.57
2019-05-07T19:54:13.392Z,11.20
2019-05-07T19:56:44.472Z,8.13
2019-05-07T19:59:15.641Z,11.37
2019-05-07T20:01:51.436Z,12.40
2019-05-07T20:04:21.938Z,10.20
2019-05-07T20:06:52.387Z,9.33
2019-05-07T20:09:27.034Z,15.03
2019-05-07T20:11:57.449Z,12.13
2019-05-07T20:14:29.612Z,8.47
2019-05-07T20:17:00.177Z,9.90
2019-05-07T20:19:32.662Z,10.93
2019-05-07T20:22:03.320Z,12.10
2019-05-07T20:24:33.828Z,12.43
2019-05-07T20:27:04.276Z,9.07
2019-05-07T20:29:37.318Z,9.77
2019-05-07T20:32:08.150Z,10.63
2019-05-07T20:34:38.650Z,17.90
2019-05-07T20:37:09.342Z,19.47
2019-05-07T20:39:39.846Z,20.10
2019-05-07T20:42:12.355Z,18.90
2019-05-07T20:44:43.183Z,18.23
2019-05-07T20:47:14.029Z,11.00
2019-05-07T20:49:44.458Z,11.13
2019-05-07T20:52:16.048Z,9.50
2019-05-07T20:55:07.601Z,8.67
2019-05-07T20:57:42.652Z,8.10
2019-05-07T21:00:26.908Z,8.10
2019-05-07T21:03:15.523Z,7.77
2019-05-07T21:05:45.996Z,8.17
2019-05-07T21:08:16.422Z,8.37
2019-05-07T21:10:46.856Z,9.13
2019-05-07T21:13:30.042Z,8.63
2019-05-07T21:15:49.831Z,9.93
2019-05-07T21:18:22.950Z,9.47
2019-05-07T21:20:53.281Z,8.03
2019-05-07T21:23:23.699Z,8.33
2019-05-07T21:25:54.115Z,6.83
2019-05-07T21:28:24.782Z,9.67
2019-05-07T21:30:55.271Z,9.30
2019-05-07T21:33:26.067Z,8.60
2019-05-07T21:35:56.908Z,14.33
2019-05-07T21:38:28.053Z,33.53
2019-05-07T21:40:58.803Z,21.00
2019-05-07T21:43:29.631Z,14.33
2019-05-07T21:46:02.295Z,11.87
2019-05-07T21:48:32.887Z,15.23
2019-05-07T21:51:03.469Z,12.53
2019-05-07T21:53:53.744Z,7.53
2019-05-07T21:56:49.464Z,10.23
2019-05-07T21:59:22.163Z,8.70
2019-05-07T22:01:56.437Z,8.90
2019-05-07T22:04:27.435Z,7.80
2019-05-07T22:06:57.864Z,10.07
2019-05-07T22:09:28.357Z,10.43
2019-05-07T22:11:59.104Z,9.43
2019-05-07T22:14:32.833Z,10.93
2019-05-07T22:17:03.406Z,8.47
2019-05-07T22:19:33.936Z,10.70
2019-05-07T22:22:04.339Z,10.27
2019-05-07T22:24:35.450Z,10.73
2019-05-07T22:27:06.293Z,13.57
2019-05-07T22:29:36.764Z,12.13
2019-05-07T22:32:32.312Z,11.53
2019-05-07T22:35:12.048Z,12.77
2019-05-07T22:37:42.561Z,11.83
2019-05-07T22:40:13.112Z,11.73
2019-05-07T22:42:43.604Z,11.07
2019-05-07T22:45:14.705Z,11.20
2019-05-07T22:47:45.131Z,9.33
2019-05-07T22:50:15.576Z,8.87
2019-05-07T22:52:46.077Z,9.40
2019-05-07T22:55:16.498Z,7.50
2019-05-07T22:58:04.094Z,9.13
2019-05-07T23:00:48.245Z,12.70
2019-05-07T23:03:19.024Z,10.07
2019-05-07T23:05:52.229Z,8.47
2019-05-07T23:08:22.279Z,9.23
2019-05-07T23:10:53.153Z,10.40
2019-05-07T23:13:23.572Z,9.93
2019-05-07T23:15:54.494Z,9.30
2019-05-07T23:18:25.327Z,8.40
2019-05-07T23:20:56.127Z,8.37
2019-05-07T23:23:26.900Z,9.60
2019-05-07T23:25:57.702Z,8.87
2019-05-07T23:28:28.128Z,9.60
2019-05-07T23:30:58.867Z,8.50
2019-05-07T23:33:29.412Z,9.33
2019-05-07T23:36:02.158Z,7.73
2019-05-07T23:38:32.254Z,8.53
2019-05-07T23:41:22.307Z,6.70
2019-05-07T23:44:12.470Z,9.40
2019-05-07T23:46:44.885Z,9.40
2019-05-07T23:49:15.785Z,7.17
2019-05-07T23:51:46.497Z,10.00
2019-05-07T23:54:17.288Z,8.50
2019-05-07T23:57:01.807Z,10.73
2019-05-07T23:59:22.172Z,10.03
